sensor_id;sensor_type;location;lat;lon;timestamp;P1;durP1;ratioP1;P2;durP2;ratioP2
3924;SDS011;1977;52.274;10.518;2024-01-15T00:01:41;16.00;;;11.70;;
3924;SDS011;1977;52.274;10.518;2024-01-15T00:04:09;16.50;;;11.20;;
3924;SDS011;1977;52.274;10.518;2024-01-15T00:06:36;14.87;;;10.73;;
3924;SDS011;1977;52.274;10.518;2024-01-15T00:09:03;16.00;;;11.50;;
3924;SDS011;1977;52.274;10.518;2024-01-15T00:11:31;13.73;;;10.93;;
3924;SDS011;1977;52.274;10.518;2024-01-15T00:13:58;18.07;;;11.23;;
3924;SDS011;1977;52.274;10.518;2024-01-15T00:16:25;17.70;;;11.80;;
3924;SDS011;1977;52.274;10.518;2024-01-15T00:18:52;16.10;;;11.27;;
3924;SDS011;1977;52.274;10.518;2024-01-15T00:21:20;16.07;;;10.93;;
3924;SDS011;1977;52.274;10.518;2024-01-15T00:23:46;17.73;;;11.17;;
3924;SDS011;1977;52.274;10.518;2024-01-15T00:26:13;14.33;;;9.50;;
3924;SDS011;1977;52.274;10.518;2024-01-15T00:28:40;14.27;;;10.33;;
3924;SDS011;1977;52.274;10.518;2024-01-15T00:31:07;16.13;;;11.23;;
3924;SDS011;1977;52.274;10.518;2024-01-15T00:33:34;15.97;;;11.03;;
3924;SDS011;1977;52.274;10.518;2024-01-15T00:36:01;16.40;;;9.60;;
3924;SDS011;1977;52.274;10.518;2024-01-15T00:38:29;13.10;;;10.90;;
3924;SDS011;1977;52.274;10.518;2024-01-15T00:40:56;15.97;;;11.20;;
3924;SDS011;1977;52.274;10.518;2024-01-15T00:43:23;15.23;;;11.10;;
3924;SDS011;1977;52.274;10.518;2024-01-15T00:45:49;12.90;;;9.80;;
3924;SDS011;1977;52.274;10.518;2024-01-15T00:48:16;16.63;;;11.20;;
3924;SDS011;1977;52.274;10.518;2024-01-15T00:50:43;13.00;;;10.10;;
3924;SDS011;1977;52.274;10.518;2024-01-15T00:53:09;15.23;;;10.70;;
3924;SDS011;1977;52.274;10.518;2024-01-15T00:55:38;13.17;;;9.90;;
3924;SDS011;1977;52.274;10.518;2024-01-15T00:58:05;12.63;;;9.50;;
3924;SDS011;1977;52.274;10.518;2024-01-15T01:00:31;13.07;;;9.87;;
3924;SDS011;1977;52.274;10.518;2024-01-15T01:02:58;13.30;;;9.70;;
3924;SDS011;1977;52.274;10.518;2024-01-15T01:05:25;13.83;;;10.43;;
3924;SDS011;1977;52.274;10.518;2024-01-15T01:07:51;13.80;;;10.10;;
3924;SDS011;1977;52.274;10.518;2024-01-15T01:10:18;11.63;;;9.23;;
3924;SDS011;1977;52.274;10.518;2024-01-15T01:12:46;12.17;;;9.33;;
3924;SDS011;1977;52.274;10.518;2024-01-15T01:15:13;11.90;;;9.00;;
3924;SDS011;1977;52.274;10.518;2024-01-15T01:17:40;12.47;;;10.33;;
3924;SDS011;1977;52.274;10.518;2024-01-15T01:20:07;10.43;;;9.40;;
3924;SDS011;1977;52.274;10.518;2024-01-15T01:22:35;9.83;;;7.67;;
3924;SDS011;1977;52.274;10.518;2024-01-15T01:25:02;10.90;;;8.00;;
3924;SDS011;1977;52.274;10.518;2024-01-15T01:27:29;12.90;;;8.63;;
3924;SDS011;1977;52.274;10.518;2024-01-15T01:29:57;8.57;;;7.60;;
3924;SDS011;1977;52.274;10.518;2024-01-15T01:32:25;14.93;;;9.00;;
3924;SDS011;1977;52.274;10.518;2024-01-15T01:34:52;10.50;;;8.17;;
3924;SDS011;1977;52.274;10.518;2024-01-15T01:37:19;11.20;;;8.40;;
3924;SDS011;1977;52.274;10.518;2024-01-15T01:39:46;11.33;;;8.03;;
3924;SDS011;1977;52.274;10.518;2024-01-15T01:42:12;9.73;;;7.53;;
3924;SDS011;1977;52.274;10.518;2024-01-15T01:44:39;9.30;;;7.53;;
3924;SDS011;1977;52.274;10.518;2024-01-15T01:47:07;8.30;;;7.40;;
3924;SDS011;1977;52.274;10.518;2024-01-15T01:49:35;12.83;;;7.40;;
3924;SDS011;1977;52.274;10.518;2024-01-15T01:52:03;8.93;;;7.07;;
3924;SDS011;1977;52.274;10.518;2024-01-15T01:54:32;8.27;;;7.10;;
3924;SDS011;1977;52.274;10.518;2024-01-15T01:56:59;7.30;;;6.20;;
3924;SDS011;1977;52.274;10.518;2024-01-15T01:59:28;7.57;;;6.30;;
3924;SDS011;1977;52.274;10.518;2024-01-15T02:01:56;9.73;;;7.00;;
3924;SDS011;1977;52.274;10.518;2024-01-15T02:04:25;7.13;;;6.23;;
3924;SDS011;1977;52.274;10.518;2024-01-15T02:06:53;8.03;;;6.87;;
3924;SDS011;1977;52.274;10.518;2024-01-15T02:09:20;7.63;;;6.83;;
3924;SDS011;1977;52.274;10.518;2024-01-15T02:11:47;8.40;;;6.90;;
3924;SDS011;1977;52.274;10.518;2024-01-15T02:14:14;12.33;;;6.63;;
3924;SDS011;1977;52.274;10.518;2024-01-15T02:16:41;8.30;;;6.67;;
3924;SDS011;1977;52.274;10.518;2024-01-15T02:19:10;8.30;;;6.70;;
3924;SDS011;1977;52.274;10.518;2024-01-15T02:21:43;7.20;;;6.43;;
3924;SDS011;1977;52.274;10.518;2024-01-15T02:24:11;7.30;;;5.87;;
3924;SDS011;1977;52.274;10.518;2024-01-15T02:26:38;9.67;;;6.13;;
3924;SDS011;1977;52.274;10.518;2024-01-15T02:29:05;7.40;;;6.07;;
3924;SDS011;1977;52.274;10.518;2024-01-15T02:31:34;8.40;;;5.97;;
3924;SDS011;1977;52.274;10.518;2024-01-15T02:34:01;5.73;;;4.67;;
3924;SDS011;1977;52.274;10.518;2024-01-15T02:36:28;5.33;;;4.93;;
3924;SDS011;1977;52.274;10.518;2024-01-15T02:38:55;6.57;;;4.30;;
3924;SDS011;1977;52.274;10.518;2024-01-15T02:41:23;7.00;;;4.70;;
3924;SDS011;1977;52.274;10.518;2024-01-15T02:43:49;5.43;;;4.73;;
3924;SDS011;1977;52.274;10.518;2024-01-15T02:46:16;7.27;;;5.40;;
3924;SDS011;1977;52.274;10.518;2024-01-15T02:48:43;10.23;;;4.73;;
3924;SDS011;1977;52.274;10.518;2024-01-15T02:51:10;8.40;;;4.20;;
3924;SDS011;1977;52.274;10.518;2024-01-15T02:53:37;4.40;;;4.00;;
3924;SDS011;1977;52.274;10.518;2024-01-15T02:56:03;7.53;;;6.07;;
3924;SDS011;1977;52.274;10.518;2024-01-15T02:58:32;8.50;;;4.63;;
3924;SDS011;1977;52.274;10.518;2024-01-15T03:00:58;14.77;;;4.90;;
3924;SDS011;1977;52.274;10.518;2024-01-15T03:03:25;7.50;;;4.83;;
3924;SDS011;1977;52.274;10.518;2024-01-15T03:05:52;8.03;;;4.20;;
3924;SDS011;1977;52.274;10.518;2024-01-15T03:08:19;8.30;;;4.70;;
3924;SDS011;1977;52.274;10.518;2024-01-15T03:10:47;8.37;;;4.60;;
3924;SDS011;1977;52.274;10.518;2024-01-15T03:13:14;9.17;;;4.80;;
3924;SDS011;1977;52.274;10.518;2024-01-15T03:15:48;5.07;;;3.97;;
3924;SDS011;1977;52.274;10.518;2024-01-15T03:18:15;10.00;;;5.90;;
3924;SDS011;1977;52.274;10.518;2024-01-15T03:20:41;5.27;;;3.73;;
3924;SDS011;1977;52.274;10.518;2024-01-15T03:23:08;9.03;;;3.90;;
3924;SDS011;1977;52.274;10.518;2024-01-15T03:25:35;11.97;;;3.77;;
3924;SDS011;1977;52.274;10.518;2024-01-15T03:28:02;3.97;;;3.60;;
3924;SDS011;1977;52.274;10.518;2024-01-15T03:30:29;3.97;;;3.60;;
3924;SDS011;1977;52.274;10.518;2024-01-15T03:32:57;9.20;;;4.20;;
3924;SDS011;1977;52.274;10.518;2024-01-15T03:35:24;3.70;;;3.40;;
3924;SDS011;1977;52.274;10.518;2024-01-15T03:37:54;6.63;;;3.47;;
3924;SDS011;1977;52.274;10.518;2024-01-15T03:40:21;3.50;;;3.20;;
3924;SDS011;1977;52.274;10.518;2024-01-15T03:42:48;4.73;;;3.70;;
3924;SDS011;1977;52.274;10.518;2024-01-15T03:45:15;4.03;;;3.70;;
3924;SDS011;1977;52.274;10.518;2024-01-15T03:47:42;6.00;;;3.70;;
3924;SDS011;1977;52.274;10.518;2024-01-15T03:50:10;6.63;;;3.70;;
3924;SDS011;1977;52.274;10.518;2024-01-15T03:52:37;3.53;;;3.10;;
3924;SDS011;1977;52.274;10.518;2024-01-15T03:55:04;5.47;;;3.80;;
3924;SDS011;1977;52.274;10.518;2024-01-15T03:57:31;7.63;;;3.33;;
3924;SDS011;1977;52.274;10.518;2024-01-15T03:59:58;6.50;;;3.50;;
3924;SDS011;1977;52.274;10.518;2024-01-15T04:02:25;5.80;;;3.60;;
3924;SDS011;1977;52.274;10.518;2024-01-15T04:04:51;8.50;;;3.60;;
3924;SDS011;1977;52.274;10.518;2024-01-15T04:07:20;8.50;;;3.60;;
3924;SDS011;1977;52.274;10.518;2024-01-15T04:09:46;3.43;;;3.10;;
3924;SDS011;1977;52.274;10.518;2024-01-15T04:12:13;5.93;;;3.40;;
3924;SDS011;1977;52.274;10.518;2024-01-15T04:14:40;6.47;;;3.13;;
3924;SDS011;1977;52.274;10.518;2024-01-15T04:17:07;7.60;;;3.90;;
3924;SDS011;1977;52.274;10.518;2024-01-15T04:19:33;4.37;;;3.03;;
3924;SDS011;1977;52.274;10.518;2024-01-15T04:22:00;5.23;;;3.20;;
3924;SDS011;1977;52.274;10.518;2024-01-15T04:24:28;5.80;;;3.37;;
3924;SDS011;1977;52.274;10.518;2024-01-15T04:26:57;4.63;;;2.97;;
3924;SDS011;1977;52.274;10.518;2024-01-15T04:29:24;5.43;;;3.70;;
3924;SDS011;1977;52.274;10.518;2024-01-15T04:31:51;5.10;;;3.57;;
3924;SDS011;1977;52.274;10.518;2024-01-15T04:34:19;6.10;;;4.17;;
3924;SDS011;1977;52.274;10.518;2024-01-15T04:36:45;5.30;;;4.00;;
3924;SDS011;1977;52.274;10.518;2024-01-15T04:39:12;3.97;;;3.47;;
3924;SDS011;1977;52.274;10.518;2024-01-15T04:41:40;3.90;;;3.60;;
3924;SDS011;1977;52.274;10.518;2024-01-15T04:44:07;4.93;;;3.70;;
3924;SDS011;1977;52.274;10.518;2024-01-15T04:46:34;4.83;;;3.80;;
3924;SDS011;1977;52.274;10.518;2024-01-15T04:49:01;4.23;;;3.83;;
3924;SDS011;1977;52.274;10.518;2024-01-15T04:51:28;5.03;;;2.70;;
3924;SDS011;1977;52.274;10.518;2024-01-15T04:53:55;6.93;;;3.13;;
3924;SDS011;1977;52.274;10.518;2024-01-15T04:56:22;5.53;;;3.13;;
3924;SDS011;1977;52.274;10.518;2024-01-15T04:58:50;7.27;;;4.17;;
3924;SDS011;1977;52.274;10.518;2024-01-15T05:01:16;5.33;;;3.27;;
3924;SDS011;1977;52.274;10.518;2024-01-15T05:03:43;4.97;;;3.17;;
3924;SDS011;1977;52.274;10.518;2024-01-15T05:06:10;3.77;;;3.57;;
3924;SDS011;1977;52.274;10.518;2024-01-15T05:08:37;7.97;;;3.30;;
3924;SDS011;1977;52.274;10.518;2024-01-15T05:11:04;6.20;;;3.90;;
3924;SDS011;1977;52.274;10.518;2024-01-15T05:13:31;5.63;;;3.10;;
3924;SDS011;1977;52.274;10.518;2024-01-15T05:15:59;6.60;;;3.67;;
3924;SDS011;1977;52.274;10.518;2024-01-15T05:18:26;8.00;;;3.03;;
3924;SDS011;1977;52.274;10.518;2024-01-15T05:20:52;6.77;;;3.10;;
3924;SDS011;1977;52.274;10.518;2024-01-15T05:23:19;3.83;;;2.93;;
3924;SDS011;1977;52.274;10.518;2024-01-15T05:25:46;4.40;;;2.93;;
3924;SDS011;1977;52.274;10.518;2024-01-15T05:28:13;6.93;;;3.50;;
3924;SDS011;1977;52.274;10.518;2024-01-15T05:30:40;4.33;;;2.90;;
3924;SDS011;1977;52.274;10.518;2024-01-15T05:33:09;4.70;;;3.20;;
3924;SDS011;1977;52.274;10.518;2024-01-15T05:35:35;8.57;;;3.50;;
3924;SDS011;1977;52.274;10.518;2024-01-15T05:38:02;3.90;;;3.60;;
3924;SDS011;1977;52.274;10.518;2024-01-15T05:40:29;4.63;;;3.00;;
3924;SDS011;1977;52.274;10.518;2024-01-15T05:42:56;6.03;;;3.10;;
3924;SDS011;1977;52.274;10.518;2024-01-15T05:45:23;5.17;;;4.07;;
3924;SDS011;1977;52.274;10.518;2024-01-15T05:47:52;5.70;;;3.67;;
3924;SDS011;1977;52.274;10.518;2024-01-15T05:50:20;4.40;;;3.30;;
3924;SDS011;1977;52.274;10.518;2024-01-15T05:52:47;5.27;;;3.17;;
3924;SDS011;1977;52.274;10.518;2024-01-15T05:55:14;4.90;;;2.80;;
3924;SDS011;1977;52.274;10.518;2024-01-15T05:57:41;6.80;;;3.20;;
3924;SDS011;1977;52.274;10.518;2024-01-15T06:00:08;4.10;;;3.20;;
3924;SDS011;1977;52.274;10.518;2024-01-15T06:02:36;4.60;;;3.47;;
3924;SDS011;1977;52.274;10.518;2024-01-15T06:05:03;5.10;;;3.37;;
3924;SDS011;1977;52.274;10.518;2024-01-15T06:07:33;7.03;;;4.00;;
3924;SDS011;1977;52.274;10.518;2024-01-15T06:10:00;3.80;;;3.50;;
3924;SDS011;1977;52.274;10.518;2024-01-15T06:12:27;4.50;;;3.20;;
3924;SDS011;1977;52.274;10.518;2024-01-15T06:14:54;6.87;;;3.70;;
3924;SDS011;1977;52.274;10.518;2024-01-15T06:17:21;8.37;;;3.60;;
3924;SDS011;1977;52.274;10.518;2024-01-15T06:19:47;3.80;;;3.10;;
3924;SDS011;1977;52.274;10.518;2024-01-15T06:22:14;6.73;;;4.40;;
3924;SDS011;1977;52.274;10.518;2024-01-15T06:24:42;5.57;;;3.87;;
3924;SDS011;1977;52.274;10.518;2024-01-15T06:27:09;3.97;;;3.67;;
3924;SDS011;1977;52.274;10.518;2024-01-15T06:29:37;4.20;;;2.90;;
3924;SDS011;1977;52.274;10.518;2024-01-15T06:32:04;5.20;;;3.13;;
3924;SDS011;1977;52.274;10.518;2024-01-15T06:34:31;5.00;;;3.50;;
3924;SDS011;1977;52.274;10.518;2024-01-15T06:36:58;7.23;;;4.60;;
3924;SDS011;1977;52.274;10.518;2024-01-15T06:39:25;7.20;;;4.20;;
3924;SDS011;1977;52.274;10.518;2024-01-15T06:41:53;6.57;;;3.50;;
3924;SDS011;1977;52.274;10.518;2024-01-15T06:44:20;6.83;;;4.47;;
3924;SDS011;1977;52.274;10.518;2024-01-15T06:46:47;8.60;;;4.53;;
3924;SDS011;1977;52.274;10.518;2024-01-15T06:49:14;8.40;;;4.73;;
3924;SDS011;1977;52.274;10.518;2024-01-15T06:51:41;5.87;;;4.30;;
3924;SDS011;1977;52.274;10.518;2024-01-15T06:54:07;9.77;;;5.40;;
3924;SDS011;1977;52.274;10.518;2024-01-15T06:56:35;9.40;;;4.17;;
3924;SDS011;1977;52.274;10.518;2024-01-15T06:59:03;4.90;;;4.00;;
3924;SDS011;1977;52.274;10.518;2024-01-15T07:01:30;7.40;;;4.40;;
3924;SDS011;1977;52.274;10.518;2024-01-15T07:03:57;4.43;;;3.50;;
3924;SDS011;1977;52.274;10.518;2024-01-15T07:06:24;6.67;;;4.13;;
3924;SDS011;1977;52.274;10.518;2024-01-15T07:08:50;7.73;;;4.07;;
3924;SDS011;1977;52.274;10.518;2024-01-15T07:11:17;5.70;;;3.77;;
3924;SDS011;1977;52.274;10.518;2024-01-15T07:13:44;8.70;;;3.80;;
3924;SDS011;1977;52.274;10.518;2024-01-15T07:16:12;7.40;;;3.90;;
3924;SDS011;1977;52.274;10.518;2024-01-15T07:18:39;5.20;;;4.23;;
3924;SDS011;1977;52.274;10.518;2024-01-15T07:21:06;4.53;;;3.40;;
3924;SDS011;1977;52.274;10.518;2024-01-15T07:23:32;4.80;;;3.30;;
3924;SDS011;1977;52.274;10.518;2024-01-15T07:25:59;6.20;;;4.00;;
3924;SDS011;1977;52.274;10.518;2024-01-15T07:28:28;4.23;;;3.90;;
3924;SDS011;1977;52.274;10.518;2024-01-15T07:30:55;4.67;;;3.90;;
3924;SDS011;1977;52.274;10.518;2024-01-15T07:33:23;6.60;;;4.50;;
3924;SDS011;1977;52.274;10.518;2024-01-15T07:35:49;5.30;;;4.03;;
3924;SDS011;1977;52.274;10.518;2024-01-15T07:38:15;6.17;;;4.00;;
3924;SDS011;1977;52.274;10.518;2024-01-15T07:43:08;7.83;;;5.17;;
3924;SDS011;1977;52.274;10.518;2024-01-15T07:45:35;8.60;;;3.70;;
3924;SDS011;1977;52.274;10.518;2024-01-15T07:48:01;6.60;;;4.27;;
3924;SDS011;1977;52.274;10.518;2024-01-15T07:50:30;6.80;;;4.30;;
3924;SDS011;1977;52.274;10.518;2024-01-15T07:52:57;4.20;;;3.80;;
3924;SDS011;1977;52.274;10.518;2024-01-15T07:55:24;6.60;;;3.83;;
3924;SDS011;1977;52.274;10.518;2024-01-15T07:57:50;6.47;;;3.93;;
3924;SDS011;1977;52.274;10.518;2024-01-15T08:00:18;6.87;;;4.80;;
3924;SDS011;1977;52.274;10.518;2024-01-15T08:02:46;12.83;;;3.80;;
3924;SDS011;1977;52.274;10.518;2024-01-15T08:05:12;5.00;;;3.80;;
3924;SDS011;1977;52.274;10.518;2024-01-15T08:07:40;4.80;;;3.90;;
3924;SDS011;1977;52.274;10.518;2024-01-15T08:10:07;8.33;;;4.43;;
3924;SDS011;1977;52.274;10.518;2024-01-15T08:12:34;4.93;;;3.60;;
3924;SDS011;1977;52.274;10.518;2024-01-15T08:15:01;11.07;;;3.70;;
3924;SDS011;1977;52.274;10.518;2024-01-15T08:17:30;6.70;;;3.60;;
3924;SDS011;1977;52.274;10.518;2024-01-15T08:19:57;4.60;;;3.17;;
3924;SDS011;1977;52.274;10.518;2024-01-15T08:22:24;4.97;;;4.20;;
3924;SDS011;1977;52.274;10.518;2024-01-15T08:24:52;7.33;;;3.60;;
3924;SDS011;1977;52.274;10.518;2024-01-15T08:27:20;3.50;;;3.20;;
3924;SDS011;1977;52.274;10.518;2024-01-15T08:29:47;4.33;;;3.90;;
3924;SDS011;1977;52.274;10.518;2024-01-15T08:32:13;8.67;;;4.23;;
3924;SDS011;1977;52.274;10.518;2024-01-15T08:34:40;6.50;;;4.73;;
3924;SDS011;1977;52.274;10.518;2024-01-15T08:37:07;5.00;;;4.60;;
3924;SDS011;1977;52.274;10.518;2024-01-15T08:39:34;6.93;;;4.40;;
3924;SDS011;1977;52.274;10.518;2024-01-15T08:42:04;4.60;;;4.20;;
3924;SDS011;1977;52.274;10.518;2024-01-15T08:44:31;6.60;;;4.17;;
3924;SDS011;1977;52.274;10.518;2024-01-15T08:46:58;6.37;;;4.20;;
3924;SDS011;1977;52.274;10.518;2024-01-15T08:49:25;5.00;;;3.90;;
3924;SDS011;1977;52.274;10.518;2024-01-15T08:51:52;7.47;;;4.47;;
3924;SDS011;1977;52.274;10.518;2024-01-15T08:54:18;4.03;;;3.63;;
3924;SDS011;1977;52.274;10.518;2024-01-15T08:56:45;6.50;;;4.00;;
3924;SDS011;1977;52.274;10.518;2024-01-15T08:59:13;10.33;;;3.83;;
3924;SDS011;1977;52.274;10.518;2024-01-15T09:01:41;5.77;;;4.70;;
3924;SDS011;1977;52.274;10.518;2024-01-15T09:04:08;8.67;;;4.70;;
3924;SDS011;1977;52.274;10.518;2024-01-15T09:06:34;4.60;;;4.20;;
3924;SDS011;1977;52.274;10.518;2024-01-15T09:09:01;4.20;;;3.90;;
3924;SDS011;1977;52.274;10.518;2024-01-15T09:11:29;8.40;;;4.37;;
3924;SDS011;1977;52.274;10.518;2024-01-15T09:13:57;4.60;;;4.20;;
3924;SDS011;1977;52.274;10.518;2024-01-15T09:16:25;4.03;;;3.40;;
3924;SDS011;1977;52.274;10.518;2024-01-15T09:18:52;3.83;;;3.53;;
3924;SDS011;1977;52.274;10.518;2024-01-15T09:21:18;4.43;;;3.97;;
3924;SDS011;1977;52.274;10.518;2024-01-15T09:23:46;6.63;;;3.57;;
3924;SDS011;1977;52.274;10.518;2024-01-15T09:26:12;4.37;;;3.97;;
3924;SDS011;1977;52.274;10.518;2024-01-15T09:28:39;6.00;;;3.90;;
3924;SDS011;1977;52.274;10.518;2024-01-15T09:31:06;4.10;;;3.80;;
3924;SDS011;1977;52.274;10.518;2024-01-15T09:33:34;3.93;;;3.57;;
3924;SDS011;1977;52.274;10.518;2024-01-15T09:36:01;4.00;;;3.70;;
3924;SDS011;1977;52.274;10.518;2024-01-15T09:38:28;6.10;;;3.20;;
3924;SDS011;1977;52.274;10.518;2024-01-15T09:40:56;5.50;;;3.20;;
3924;SDS011;1977;52.274;10.518;2024-01-15T09:43:24;3.53;;;3.23;;
3924;SDS011;1977;52.274;10.518;2024-01-15T09:45:51;3.20;;;2.93;;
3924;SDS011;1977;52.274;10.518;2024-01-15T09:48:18;3.83;;;3.63;;
3924;SDS011;1977;52.274;10.518;2024-01-15T09:50:47;4.00;;;2.80;;
3924;SDS011;1977;52.274;10.518;2024-01-15T09:53:14;2.90;;;2.70;;
3924;SDS011;1977;52.274;10.518;2024-01-15T09:55:41;3.40;;;2.87;;
3924;SDS011;1977;52.274;10.518;2024-01-15T09:58:08;4.53;;;4.10;;
3924;SDS011;1977;52.274;10.518;2024-01-15T10:00:36;5.70;;;3.13;;
3924;SDS011;1977;52.274;10.518;2024-01-15T10:03:06;3.73;;;3.07;;
3924;SDS011;1977;52.274;10.518;2024-01-15T10:05:35;3.60;;;3.30;;
3924;SDS011;1977;52.274;10.518;2024-01-15T10:08:03;3.53;;;3.23;;
3924;SDS011;1977;52.274;10.518;2024-01-15T10:10:31;3.20;;;2.90;;
3924;SDS011;1977;52.274;10.518;2024-01-15T10:12:58;11.73;;;3.93;;
3924;SDS011;1977;52.274;10.518;2024-01-15T10:15:25;4.83;;;3.60;;
3924;SDS011;1977;52.274;10.518;2024-01-15T10:17:52;4.13;;;3.40;;
3924;SDS011;1977;52.274;10.518;2024-01-15T10:20:19;5.87;;;3.90;;
3924;SDS011;1977;52.274;10.518;2024-01-15T10:22:47;6.77;;;3.50;;
3924;SDS011;1977;52.274;10.518;2024-01-15T10:25:17;3.50;;;3.20;;
3924;SDS011;1977;52.274;10.518;2024-01-15T10:27:52;5.40;;;4.40;;
3924;SDS011;1977;52.274;10.518;2024-01-15T10:30:29;4.93;;;3.80;;
3924;SDS011;1977;52.274;10.518;2024-01-15T10:32:58;3.10;;;2.90;;
3924;SDS011;1977;52.274;10.518;2024-01-15T10:35:26;4.43;;;3.27;;
3924;SDS011;1977;52.274;10.518;2024-01-15T10:37:54;26.23;;;4.83;;
3924;SDS011;1977;52.274;10.518;2024-01-15T10:40:22;7.10;;;4.03;;
3924;SDS011;1977;52.274;10.518;2024-01-15T10:42:49;3.90;;;3.27;;
3924;SDS011;1977;52.274;10.518;2024-01-15T10:45:16;5.97;;;3.10;;
3924;SDS011;1977;52.274;10.518;2024-01-15T10:47:43;5.70;;;3.67;;
3924;SDS011;1977;52.274;10.518;2024-01-15T10:50:11;6.17;;;3.27;;
3924;SDS011;1977;52.274;10.518;2024-01-15T10:52:39;3.70;;;3.07;;
3924;SDS011;1977;52.274;10.518;2024-01-15T10:55:06;4.93;;;3.60;;
3924;SDS011;1977;52.274;10.518;2024-01-15T10:57:36;4.97;;;2.60;;
3924;SDS011;1977;52.274;10.518;2024-01-15T11:00:03;4.40;;;3.20;;
3924;SDS011;1977;52.274;10.518;2024-01-15T11:02:31;5.30;;;2.77;;
3924;SDS011;1977;52.274;10.518;2024-01-15T11:04:59;3.67;;;3.30;;
3924;SDS011;1977;52.274;10.518;2024-01-15T11:07:26;8.60;;;2.67;;
3924;SDS011;1977;52.274;10.518;2024-01-15T11:09:53;4.30;;;2.33;;
3924;SDS011;1977;52.274;10.518;2024-01-15T11:12:19;2.40;;;2.30;;
3924;SDS011;1977;52.274;10.518;2024-01-15T11:14:48;4.30;;;2.87;;
3924;SDS011;1977;52.274;10.518;2024-01-15T11:17:16;2.27;;;2.07;;
3924;SDS011;1977;52.274;10.518;2024-01-15T11:19:44;4.30;;;4.00;;
3924;SDS011;1977;52.274;10.518;2024-01-15T11:25:13;3.00;;;2.80;;
3924;SDS011;1977;52.274;10.518;2024-01-15T11:27:41;5.83;;;2.93;;
3924;SDS011;1977;52.274;10.518;2024-01-15T11:30:11;4.87;;;2.50;;
3924;SDS011;1977;52.274;10.518;2024-01-15T11:32:38;6.67;;;2.80;;
3924;SDS011;1977;52.274;10.518;2024-01-15T11:35:07;6.27;;;4.47;;
3924;SDS011;1977;52.274;10.518;2024-01-15T11:40:35;3.20;;;2.60;;
3924;SDS011;1977;52.274;10.518;2024-01-15T11:43:03;3.50;;;3.20;;
3924;SDS011;1977;52.274;10.518;2024-01-15T11:45:32;3.33;;;2.87;;
3924;SDS011;1977;52.274;10.518;2024-01-15T11:48:08;3.77;;;2.90;;
3924;SDS011;1977;52.274;10.518;2024-01-15T11:50:39;2.93;;;2.63;;
3924;SDS011;1977;52.274;10.518;2024-01-15T11:53:09;3.87;;;3.13;;
3924;SDS011;1977;52.274;10.518;2024-01-15T11:55:43;3.30;;;3.10;;
3924;SDS011;1977;52.274;10.518;2024-01-15T11:58:11;3.60;;;2.70;;
3924;SDS011;1977;52.274;10.518;2024-01-15T12:00:44;2.67;;;2.50;;
3924;SDS011;1977;52.274;10.518;2024-01-15T12:03:13;5.10;;;3.53;;
3924;SDS011;1977;52.274;10.518;2024-01-15T12:05:39;2.80;;;2.33;;
3924;SDS011;1977;52.274;10.518;2024-01-15T12:08:07;3.07;;;2.87;;
3924;SDS011;1977;52.274;10.518;2024-01-15T12:10:36;5.03;;;2.60;;
3924;SDS011;1977;52.274;10.518;2024-01-15T12:13:04;3.77;;;2.80;;
3924;SDS011;1977;52.274;10.518;2024-01-15T12:15:32;2.63;;;2.43;;
3924;SDS011;1977;52.274;10.518;2024-01-15T12:18:01;3.00;;;2.70;;
3924;SDS011;1977;52.274;10.518;2024-01-15T12:20:30;3.00;;;2.50;;
3924;SDS011;1977;52.274;10.518;2024-01-15T12:22:57;3.50;;;3.20;;
3924;SDS011;1977;52.274;10.518;2024-01-15T12:25:24;2.70;;;2.60;;
3924;SDS011;1977;52.274;10.518;2024-01-15T12:27:52;3.30;;;2.80;;
3924;SDS011;1977;52.274;10.518;2024-01-15T12:30:20;3.20;;;3.00;;
3924;SDS011;1977;52.274;10.518;2024-01-15T12:32:46;3.20;;;2.90;;
3924;SDS011;1977;52.274;10.518;2024-01-15T12:35:15;3.03;;;2.73;;
3924;SDS011;1977;52.274;10.518;2024-01-15T12:37:42;2.70;;;2.50;;
3924;SDS011;1977;52.274;10.518;2024-01-15T12:40:11;2.93;;;2.73;;
3924;SDS011;1977;52.274;10.518;2024-01-15T12:42:39;4.03;;;3.13;;
3924;SDS011;1977;52.274;10.518;2024-01-15T12:45:06;6.33;;;2.73;;
3924;SDS011;1977;52.274;10.518;2024-01-15T12:47:35;3.43;;;2.80;;
3924;SDS011;1977;52.274;10.518;2024-01-15T12:50:04;3.63;;;2.67;;
3924;SDS011;1977;52.274;10.518;2024-01-15T12:52:34;3.63;;;3.30;;
3924;SDS011;1977;52.274;10.518;2024-01-15T12:55:03;3.00;;;2.80;;
3924;SDS011;1977;52.274;10.518;2024-01-15T12:57:30;2.97;;;2.67;;
3924;SDS011;1977;52.274;10.518;2024-01-15T12:59:57;3.50;;;3.20;;
3924;SDS011;1977;52.274;10.518;2024-01-15T13:02:24;3.20;;;2.90;;
3924;SDS011;1977;52.274;10.518;2024-01-15T13:04:51;6.27;;;3.10;;
3924;SDS011;1977;52.274;10.518;2024-01-15T13:07:19;3.70;;;3.40;;
3924;SDS011;1977;52.274;10.518;2024-01-15T13:09:47;4.20;;;3.00;;
3924;SDS011;1977;52.274;10.518;2024-01-15T13:12:17;4.07;;;3.40;;
3924;SDS011;1977;52.274;10.518;2024-01-15T13:14:44;3.30;;;2.70;;
3924;SDS011;1977;52.274;10.518;2024-01-15T13:17:10;5.10;;;3.30;;
3924;SDS011;1977;52.274;10.518;2024-01-15T13:19:37;5.70;;;4.07;;
3924;SDS011;1977;52.274;10.518;2024-01-15T13:22:04;4.70;;;4.30;;
3924;SDS011;1977;52.274;10.518;2024-01-15T13:24:32;3.90;;;3.60;;
3924;SDS011;1977;52.274;10.518;2024-01-15T13:27:00;4.43;;;3.07;;
3924;SDS011;1977;52.274;10.518;2024-01-15T13:29:27;4.63;;;3.20;;
3924;SDS011;1977;52.274;10.518;2024-01-15T13:31:54;5.97;;;3.50;;
3924;SDS011;1977;52.274;10.518;2024-01-15T13:34:21;3.17;;;2.87;;
3924;SDS011;1977;52.274;10.518;2024-01-15T13:36:47;6.77;;;3.23;;
3924;SDS011;1977;52.274;10.518;2024-01-15T13:39:15;4.97;;;3.80;;
3924;SDS011;1977;52.274;10.518;2024-01-15T13:41:45;8.33;;;3.17;;
3924;SDS011;1977;52.274;10.518;2024-01-15T13:44:13;3.60;;;3.00;;
3924;SDS011;1977;52.274;10.518;2024-01-15T13:46:40;7.10;;;4.20;;
3924;SDS011;1977;52.274;10.518;2024-01-15T13:49:06;4.83;;;3.23;;
3924;SDS011;1977;52.274;10.518;2024-01-15T13:51:34;9.50;;;3.60;;
3924;SDS011;1977;52.274;10.518;2024-01-15T13:54:01;6.37;;;3.27;;
3924;SDS011;1977;52.274;10.518;2024-01-15T13:56:29;3.67;;;3.13;;
3924;SDS011;1977;52.274;10.518;2024-01-15T13:58:57;3.70;;;3.50;;
3924;SDS011;1977;52.274;10.518;2024-01-15T14:01:27;3.07;;;2.87;;
3924;SDS011;1977;52.274;10.518;2024-01-15T14:03:53;3.13;;;2.83;;
3924;SDS011;1977;52.274;10.518;2024-01-15T14:06:20;5.47;;;3.63;;
3924;SDS011;1977;52.274;10.518;2024-01-15T14:08:50;3.30;;;3.00;;
3924;SDS011;1977;52.274;10.518;2024-01-15T14:11:17;4.30;;;3.73;;
3924;SDS011;1977;52.274;10.518;2024-01-15T14:13:46;7.90;;;3.40;;
3924;SDS011;1977;52.274;10.518;2024-01-15T14:16:15;3.83;;;3.10;;
3924;SDS011;1977;52.274;10.518;2024-01-15T14:18:43;3.17;;;2.87;;
3924;SDS011;1977;52.274;10.518;2024-01-15T14:21:11;4.63;;;3.10;;
3924;SDS011;1977;52.274;10.518;2024-01-15T14:23:37;7.40;;;3.47;;
3924;SDS011;1977;52.274;10.518;2024-01-15T14:26:04;3.73;;;3.40;;
3924;SDS011;1977;52.274;10.518;2024-01-15T14:28:31;4.90;;;3.10;;
3924;SDS011;1977;52.274;10.518;2024-01-15T14:30:58;3.60;;;3.30;;
3924;SDS011;1977;52.274;10.518;2024-01-15T14:33:25;3.53;;;2.93;;
3924;SDS011;1977;52.274;10.518;2024-01-15T14:35:53;4.43;;;3.90;;
3924;SDS011;1977;52.274;10.518;2024-01-15T14:38:20;5.03;;;3.63;;
3924;SDS011;1977;52.274;10.518;2024-01-15T14:40:47;3.37;;;2.83;;
3924;SDS011;1977;52.274;10.518;2024-01-15T14:43:14;5.17;;;2.60;;
3924;SDS011;1977;52.274;10.518;2024-01-15T14:45:41;9.10;;;2.83;;
3924;SDS011;1977;52.274;10.518;2024-01-15T14:48:08;4.10;;;2.67;;
3924;SDS011;1977;52.274;10.518;2024-01-15T14:50:35;4.43;;;2.70;;
3924;SDS011;1977;52.274;10.518;2024-01-15T14:53:03;7.93;;;3.80;;
3924;SDS011;1977;52.274;10.518;2024-01-15T14:55:30;3.20;;;2.90;;
3924;SDS011;1977;52.274;10.518;2024-01-15T14:57:57;4.77;;;2.93;;
3924;SDS011;1977;52.274;10.518;2024-01-15T15:00:24;3.27;;;2.97;;
3924;SDS011;1977;52.274;10.518;2024-01-15T15:02:50;4.30;;;3.13;;
3924;SDS011;1977;52.274;10.518;2024-01-15T15:05:17;6.43;;;3.27;;
3924;SDS011;1977;52.274;10.518;2024-01-15T15:07:45;5.40;;;3.43;;